Terminal Aerodrome Forecast
Issued by NWS

Home | Current Version | Previous Version | Text Only | Print | Product List | Glossary On
Versions: 1 2 3 4 5 6 7 8 9 10 11 12
289
FTUS46 KSEW 212333
TAFHQM
TAF
KHQM 212333Z 2200/2224 12012KT P6SM -SHRA BKN025 OVC040
     FM220900 09012G18KT P6SM SCT025 BKN040 OVC070
     FM221400 10015G22KT P6SM -RA OVC030=

USA.gov is the U.S. government's official web portal to all federal, state and local government web resources and services.